Time;durP1;ratioP1;P1;durP2;ratioP2;P2;SDS_P1;SDS_P2;PMS_P1;PMS_P2;Temp;Humidity;BMP_temperature;BMP_pressure;BME280_temperature;BME280_humidity;BME280_pressure;Samples;Min_cycle;Max_cycle;Signal;HPM_P1;HPM_P2
2022/06/24 00:00:11;;;;;;;4.90;1.85;;;21.20;67.90;;;;;;5079899;28;20036;-57
2022/06/24 00:02:38;;;;;;;2.65;1.45;;;21.20;67.60;;;;;;5081801;28;20036;-59
2022/06/24 00:05:10;;;;;;;2.70;1.70;;;21.20;67.40;;;;;;5083202;28;20146;-57
2022/06/24 00:07:49;;;;;;;4.65;1.85;;;21.20;68.90;;;;;;5083220;28;20040;-58
2022/06/24 00:10:17;;;;;;;9.20;1.95;;;21.20;68.90;;;;;;5083239;28;20044;-58
2022/06/24 00:12:47;;;;;;;7.93;2.08;;;21.20;67.70;;;;;;5082628;28;20409;-59
2022/06/24 00:15:13;;;;;;;6.40;2.08;;;21.10;70.20;;;;;;5082778;28;20039;-58
2022/06/24 00:17:38;;;;;;;;;;;21.10;71.50;;;;;;5076583;28;20148;-58
2022/06/24 00:20:09;;;;;;;4.53;1.92;;;20.90;72.30;;;;;;5068699;28;20526;-55
2022/06/24 00:22:49;;;;;;;4.47;2.15;;;20.80;72.50;;;;;;5067940;28;20093;-57
2022/06/24 00:25:15;;;;;;;2.33;1.40;;;20.70;70.70;;;;;;5067165;28;20044;-57
2022/06/24 00:27:42;;;;;;;;;;;20.70;70.90;;;;;;5062768;28;20032;-59
2022/06/24 00:30:16;;;;;;;2.30;1.70;;;20.60;70.40;;;;;;5055331;28;20349;-59
2022/06/24 00:32:43;;;;;;;4.18;2.00;;;20.60;73.60;;;;;;5066063;28;20044;-59
2022/06/24 00:35:11;;;;;;;3.60;2.00;;;20.50;75.60;;;;;;5068587;28;20044;-59
2022/06/24 00:37:39;;;;;;;2.65;1.77;;;20.50;74.80;;;;;;5068729;28;20039;-58
2022/06/24 00:40:10;;;;;;;1.85;1.73;;;20.50;74.30;;;;;;5068381;28;20047;-58
2022/06/24 00:42:41;;;;;;;4.68;2.05;;;20.40;76.20;;;;;;5068325;28;20444;-57
2022/06/24 00:45:14;;;;;;;3.67;1.67;;;20.40;75.00;;;;;;5068795;28;20041;-56
2022/06/24 00:47:41;;;;;;;3.88;2.15;;;20.30;75.30;;;;;;5068644;28;20047;-58
2022/06/24 00:50:26;;;;;;;3.58;2.22;;;20.20;78.10;;;;;;5069185;28;20790;-56
2022/06/24 00:52:55;;;;;;;4.25;2.28;;;20.10;78.60;;;;;;5068512;28;20040;-59
2022/06/24 00:55:25;;;;;;;4.22;2.15;;;20.00;78.30;;;;;;5068130;28;20131;-55
2022/06/24 00:57:51;;;;;;;3.22;2.38;;;19.90;81.40;;;;;;5068711;28;20076;-58
2022/06/24 01:00:17;;;;;;;3.17;2.40;;;19.80;81.40;;;;;;5064984;28;20039;-58
2022/06/24 01:02:43;;;;;;;;;;;19.70;82.10;;;;;;5068031;28;20032;-58
2022/06/24 01:05:10;;;;;;;2.60;2.30;;;19.60;82.00;;;;;;5067884;28;19916;-56
2022/06/24 01:07:39;;;;;;;6.38;2.60;;;19.50;83.50;;;;;;5068368;28;20044;-59
2022/06/24 01:10:07;;;;;;;4.32;2.47;;;19.40;83.50;;;;;;5061903;28;20037;-58
2022/06/24 01:12:34;;;;;;;3.33;2.00;;;19.20;83.70;;;;;;5068005;28;20060;-58
2022/06/24 01:15:00;;;;;;;5.07;2.50;;;19.20;83.50;;;;;;5068136;28;20094;-58
2022/06/24 01:17:26;;;;;;;3.75;1.80;;;19.10;84.10;;;;;;5068484;28;20039;-56
2022/06/24 01:19:51;;;;;;;;;;;19.10;84.90;;;;;;5068150;28;20048;-57
2022/06/24 01:22:24;;;;;;;2.80;2.03;;;19.00;84.40;;;;;;5067639;28;19947;-58
2022/06/24 01:24:51;;;;;;;3.65;2.22;;;18.90;84.30;;;;;;5067501;28;20043;-58
2022/06/24 01:27:17;;;;;;;4.25;2.35;;;19.00;83.90;;;;;;5050226;28;20489;-57
2022/06/24 01:29:43;;;;;;;;;;;18.90;86.70;;;;;;5064016;28;20040;-57
2022/06/24 01:32:09;;;;;;;4.57;2.42;;;18.80;84.30;;;;;;5066974;28;20478;-56
2022/06/24 01:34:35;;;;;;;6.47;2.50;;;18.70;86.00;;;;;;5066774;28;20049;-58
2022/06/24 01:37:01;;;;;;;3.00;2.22;;;18.70;86.20;;;;;;5067502;28;20040;-59
2022/06/24 01:39:27;;;;;;;;;;;18.80;85.30;;;;;;5068118;28;20116;-59
2022/06/24 01:41:54;;;;;;;7.57;2.45;;;18.90;84.00;;;;;;5066717;28;20292;-58
2022/06/24 01:44:21;;;;;;;6.07;2.20;;;18.80;85.10;;;;;;5066743;28;20056;-59
2022/06/24 01:46:47;;;;;;;5.53;2.50;;;18.70;85.60;;;;;;5066987;28;20052;-57
2022/06/24 01:49:13;;;;;;;;;;;18.70;86.80;;;;;;5066953;28;20035;-57
2022/06/24 01:51:40;;;;;;;4.05;2.05;;;18.60;87.10;;;;;;5066597;28;19978;-58
2022/06/24 01:54:06;;;;;;;7.03;2.33;;;18.60;84.90;;;;;;5066905;28;20054;-58
2022/06/24 01:56:32;;;;;;;;;;;18.60;87.10;;;;;;5054034;28;20915;-59
2022/06/24 01:58:57;;;;;;;3.45;2.45;;;18.60;87.00;;;;;;5051738;28;19916;-58
2022/06/24 02:01:23;;;;;;;2.83;2.50;;;18.60;86.30;;;;;;5056446;28;20464;-57
2022/06/24 02:03:48;;;;;;;;;;;18.60;86.30;;;;;;5046514;28;20635;-58
2022/06/24 02:06:15;;;;;;;4.32;2.15;;;18.60;87.80;;;;;;5046702;28;19921;-58
2022/06/24 02:08:41;;;;;;;5.90;2.50;;;18.60;87.40;;;;;;5046880;28;20048;-58
2022/06/24 02:13:51;;;;;;;2.65;2.45;;;18.70;85.70;;;;;;5045928;28;20529;-58
2022/06/24 02:16:21;;;;;;;;;;;18.70;86.90;;;;;;5046201;28;20090;-57
2022/06/24 02:18:46;;;;;;;11.00;2.83;;;18.70;90.30;;;;;;5046527;28;19916;-59
2022/06/24 02:21:13;;;;;;;;;;;18.90;91.80;;;;;;5046745;28;20041;-58
2022/06/24 02:23:39;;;;;;;22.15;5.80;;;18.80;94.10;;;;;;5038449;28;19924;-59
2022/06/24 02:26:04;;;;;;;17.67;4.57;;;18.50;98.70;;;;;;5041166;28;20045;-60
2022/06/24 02:28:30;;;;;;;;;;;18.40;99.40;;;;;;5038706;28;20053;-59
2022/06/24 02:30:58;;;;;;;8.40;4.30;;;18.40;99.90;;;;;;5045801;28;20047;-59
2022/06/24 02:33:25;;;;;;;10.27;4.90;;;18.20;99.90;;;;;;5054676;28;20044;-59
2022/06/24 02:35:51;;;;;;;11.43;4.65;;;18.30;99.90;;;;;;5059478;28;20040;-59
2022/06/24 02:38:16;;;;;;;;;;;18.20;99.90;;;;;;5056263;28;20044;-59
2022/06/24 02:40:45;;;;;;;12.75;3.28;;;18.30;99.90;;;;;;5061945;28;19920;-57
2022/06/24 02:43:19;;;;;;;12.98;3.78;;;18.20;99.90;;;;;;5065573;28;20066;-59
2022/06/24 02:45:47;;;;;;;12.07;4.05;;;18.20;99.90;;;;;;5065971;28;20040;-60
2022/06/24 02:48:14;;;;;;;10.73;3.97;;;18.20;99.90;;;;;;5065703;28;20122;-60
2022/06/24 02:50:44;;;;;;;10.38;3.85;;;18.20;99.90;;;;;;5065710;28;20076;-60
2022/06/24 02:53:11;;;;;;;13.75;3.97;;;18.20;99.90;;;;;;5065852;28;20113;-60
2022/06/24 02:55:37;;;;;;;11.68;3.78;;;18.10;99.90;;;;;;5060288;28;20106;-59
2022/06/24 02:58:06;;;;;;;11.38;3.75;;;18.10;99.90;;;;;;5055275;28;20080;-60
2022/06/24 03:00:32;;;;;;;10.15;3.10;;;18.00;99.90;;;;;;5053097;28;20036;-60
2022/06/24 03:02:58;;;;;;;;;;;18.00;99.90;;;;;;5056729;28;20048;-60
2022/06/24 03:05:24;;;;;;;8.55;3.25;;;18.10;99.90;;;;;;5057237;28;19920;-59
2022/06/24 03:07:50;;;;;;;9.98;3.42;;;18.00;99.90;;;;;;5055922;28;20041;-60
2022/06/24 03:10:16;;;;;;;7.47;2.97;;;18.10;99.90;;;;;;5056540;28;20656;-60
2022/06/24 03:12:42;;;;;;;;;;;18.00;99.90;;;;;;5055309;28;20095;-60
2022/06/24 03:15:09;;;;;;;5.97;2.55;;;18.10;99.90;;;;;;5056908;28;19970;-60
2022/06/24 03:17:35;;;;;;;11.98;2.83;;;18.10;99.90;;;;;;5052999;28;20048;-60
2022/06/24 03:20:00;;;;;;;;;;;18.10;99.90;;;;;;5058576;28;20043;-60
2022/06/24 03:22:26;;;;;;;10.48;2.78;;;18.10;99.90;;;;;;5055323;28;20007;-60
2022/06/24 03:24:52;;;;;;;11.02;2.17;;;18.10;99.90;;;;;;5056147;28;20590;-60
2022/06/24 03:27:17;;;;;;;7.72;2.67;;;18.10;99.90;;;;;;5052119;28;20041;-60
2022/06/24 03:29:43;;;;;;;8.63;3.45;;;18.00;99.90;;;;;;5057646;28;20500;-59
2022/06/24 03:32:09;;;;;;;;;;;17.90;99.90;;;;;;5036877;28;20044;-60
2022/06/24 03:34:34;;;;;;;12.43;2.92;;;17.90;99.90;;;;;;5029394;28;19963;-60
2022/06/24 03:37:00;;;;;;;6.68;2.65;;;17.90;99.90;;;;;;5033250;28;20750;-60
2022/06/24 03:39:26;;;;;;;7.65;2.55;;;18.00;99.90;;;;;;5034319;28;20696;-60
2022/06/24 03:41:52;;;;;;;;;;;18.10;99.90;;;;;;5035829;28;20067;-60
2022/06/24 03:44:17;;;;;;;8.43;2.45;;;18.20;99.90;;;;;;5045798;28;19917;-60
2022/06/24 03:46:43;;;;;;;;;;;18.20;99.90;;;;;;5040996;28;20460;-59
2022/06/24 03:49:09;;;;;;;6.20;1.95;;;18.40;99.90;;;;;;5040587;28;20425;-60
2022/06/24 03:51:35;;;;;;;5.45;2.10;;;18.60;99.90;;;;;;5038373;28;20679;-60
2022/06/24 03:54:01;;;;;;;5.55;1.98;;;18.60;99.90;;;;;;5028971;28;20048;-60
2022/06/24 03:56:27;;;;;;;;;;;18.70;99.90;;;;;;5039231;28;20040;-60
2022/06/24 03:58:53;;;;;;;4.90;1.90;;;18.70;99.90;;;;;;5049429;28;19956;-60
2022/06/24 04:01:18;;;;;;;;;;;18.70;99.90;;;;;;5049007;28;20454;-60
2022/06/24 04:03:44;;;;;;;7.55;1.75;;;18.70;99.90;;;;;;5049720;28;20320;-61
2022/06/24 04:06:09;;;;;;;;;;;18.50;99.90;;;;;;5049185;28;20063;-63
2022/06/24 04:08:35;;;;;;;3.10;1.33;;;18.50;99.90;;;;;;5049948;28;19917;-60
2022/06/24 04:11:14;;;;;;;;;;;18.40;99.90;;;;;;5049138;28;20040;-61
2022/06/24 04:13:40;;;;;;;3.85;1.45;;;18.40;99.90;;;;;;5049875;28;20008;-62
2022/06/24 04:16:05;;;;;;;;;;;18.40;99.90;;;;;;5050242;28;20111;-61
2022/06/24 04:18:31;;;;;;;3.10;1.23;;;18.30;99.90;;;;;;5048768;28;19994;-62
2022/06/24 04:20:57;;;;;;;2.55;1.23;;;18.30;99.90;;;;;;5049615;28;20091;-62
2022/06/24 04:23:23;;;;;;;6.85;1.58;;;18.20;99.90;;;;;;5046834;28;20033;-62
2022/06/24 04:25:49;;;;;;;3.35;1.55;;;18.10;99.90;;;;;;5048775;28;20041;-63
2022/06/24 04:28:16;;;;;;;5.30;1.55;;;18.00;99.90;;;;;;5049049;28;20076;-65
2022/06/24 04:30:42;;;;;;;8.65;1.42;;;18.00;99.90;;;;;;5047111;28;20512;-62
2022/06/24 04:33:07;;;;;;;;;;;17.90;99.90;;;;;;5049561;28;20041;-62
2022/06/24 04:35:33;;;;;;;6.20;1.20;;;17.90;99.90;;;;;;5048168;28;19920;-61
2022/06/24 04:37:58;;;;;;;5.53;1.23;;;17.80;99.90;;;;;;5048161;28;20517;-63
2022/06/24 04:40:24;;;;;;;;;;;17.70;99.90;;;;;;5038197;28;20562;-63
2022/06/24 04:42:49;;;;;;;4.28;1.33;;;17.60;99.90;;;;;;5039023;28;20746;-63
2022/06/24 04:45:15;;;;;;;5.20;1.08;;;17.60;99.90;;;;;;5048562;28;20078;-61
2022/06/24 04:47:41;;;;;;;6.50;1.20;;;17.50;99.90;;;;;;5047981;28;20128;-62
2022/06/24 04:50:07;;;;;;;;;;;17.40;99.90;;;;;;5049148;28;20064;-62
2022/06/24 04:52:34;;;;;;;3.88;1.15;;;17.50;99.90;;;;;;5048044;28;19917;-63
2022/06/24 04:55:00;;;;;;;3.97;1.27;;;17.60;99.90;;;;;;5048337;28;20072;-63
2022/06/24 04:57:26;;;;;;;4.18;1.65;;;17.60;99.90;;;;;;5047800;28;20516;-62
2022/06/24 04:59:51;;;;;;;;;;;17.50;99.90;;;;;;5048886;28;20052;-60
2022/06/24 05:02:18;;;;;;;9.75;1.85;;;17.50;99.90;;;;;;5060397;28;19951;-61
2022/06/24 05:04:43;;;;;;;4.50;1.23;;;17.30;99.90;;;;;;5066623;28;20079;-61
2022/06/24 05:07:09;;;;;;;;;;;17.40;99.90;;;;;;5048522;28;20073;-61
2022/06/24 05:09:35;;;;;;;3.75;1.27;;;17.50;99.90;;;;;;5056376;28;19923;-60
2022/06/24 05:12:01;;;;;;;3.35;1.40;;;17.50;99.90;;;;;;5063165;28;20087;-59
2022/06/24 05:14:28;;;;;;;7.63;1.30;;;17.50;99.90;;;;;;5082862;28;20042;-61
2022/06/24 05:16:53;;;;;;;5.15;1.17;;;17.50;99.90;;;;;;5039937;28;20078;-61
2022/06/24 05:19:19;;;;;;;;;;;17.40;99.90;;;;;;5062546;28;20036;-60
2022/06/24 05:21:44;;;;;;;3.00;1.40;;;17.50;99.90;;;;;;5061837;28;19920;-60
2022/06/24 05:24:10;;;;;;;;;;;17.40;99.90;;;;;;5052930;28;20572;-60
2022/06/24 05:26:36;;;;;;;10.30;1.10;;;17.40;99.90;;;;;;5061826;28;20475;-61
2022/06/24 05:29:01;;;;;;;;;;;17.40;99.90;;;;;;5057652;28;20497;-60
2022/06/24 05:31:27;;;;;;;6.32;1.42;;;17.40;99.90;;;;;;5053857;28;19916;-62
2022/06/24 05:33:53;;;;;;;;;;;17.40;99.90;;;;;;5054863;28;20037;-61
2022/06/24 05:36:18;;;;;;;2.83;0.98;;;17.30;99.90;;;;;;5068495;28;19923;-61
2022/06/24 05:38:46;;;;;;;;;;;17.30;99.90;;;;;;5058372;28;20052;-59
2022/06/24 05:41:13;;;;;;;7.82;1.98;;;17.30;99.90;;;;;;5070056;28;19920;-59
2022/06/24 05:43:38;;;;;;;10.68;2.45;;;17.20;99.90;;;;;;5055883;28;20040;-58
2022/06/24 05:46:04;;;;;;;;;;;17.20;99.90;;;;;;5058030;28;20045;-59
2022/06/24 05:48:30;;;;;;;5.28;1.50;;;17.20;99.90;;;;;;5056552;28;19931;-59
2022/06/24 05:50:56;;;;;;;;;;;17.10;99.90;;;;;;5062292;28;20032;-61
2022/06/24 05:56:06;;;;;;;2.97;1.17;;;17.10;99.90;;;;;;5059397;28;20037;-59
2022/06/24 05:58:31;;;;;;;;;;;17.10;99.90;;;;;;5060681;28;20044;-57
2022/06/24 06:00:57;;;;;;;4.05;1.42;;;17.10;99.90;;;;;;5060498;28;19931;-57
2022/06/24 06:03:23;;;;;;;;;;;17.10;99.90;;;;;;5055695;28;20074;-59
2022/06/24 06:05:49;;;;;;;2.73;0.87;;;17.10;99.90;;;;;;5066314;28;20143;-59
2022/06/24 06:08:18;;;;;;;;;;;17.20;99.90;;;;;;5061898;28;21073;-59
2022/06/24 06:10:46;;;;;;;2.72;0.93;;;17.20;99.90;;;;;;5055685;28;20431;-59
2022/06/24 06:13:20;;;;;;;3.17;1.10;;;17.20;99.90;;;;;;5054239;28;20028;-60
2022/06/24 06:15:49;;;;;;;4.93;1.00;;;17.20;99.90;;;;;;5050453;28;20056;-59
2022/06/24 06:18:18;;;;;;;1.88;0.90;;;17.20;99.90;;;;;;5055583;28;20044;-59
2022/06/24 06:20:43;;;;;;;5.43;1.67;;;17.20;99.90;;;;;;5058616;28;20040;-61
2022/06/24 06:23:09;;;;;;;;;;;17.20;99.90;;;;;;5058080;28;21053;-61
2022/06/24 06:25:35;;;;;;;4.10;0.98;;;17.20;99.90;;;;;;5066700;28;19927;-60
2022/06/24 06:28:02;;;;;;;2.17;0.82;;;17.30;99.90;;;;;;5065018;28;20506;-60
2022/06/24 06:30:29;;;;;;;2.17;0.90;;;17.30;99.90;;;;;;5058578;28;20470;-60
2022/06/24 06:32:55;;;;;;;4.90;0.80;;;17.30;99.90;;;;;;5062740;28;20097;-60
2022/06/24 06:35:21;;;;;;;;;;;17.40;99.90;;;;;;5056659;28;20033;-59
2022/06/24 06:37:46;;;;;;;1.75;1.20;;;17.40;99.90;;;;;;5057362;28;20003;-60
2022/06/24 06:40:12;;;;;;;;;;;17.50;99.90;;;;;;5054180;28;20148;-60
2022/06/24 06:42:37;;;;;;;2.17;0.85;;;17.50;99.90;;;;;;5051830;28;19956;-59
2022/06/24 06:45:04;;;;;;;2.95;0.68;;;17.50;99.90;;;;;;5054078;28;20063;-59
2022/06/24 06:47:29;;;;;;;2.35;0.60;;;17.60;99.90;;;;;;5055572;28;20073;-60
2022/06/24 06:49:55;;;;;;;;;;;17.60;99.90;;;;;;5056831;28;20614;-61
2022/06/24 06:52:21;;;;;;;2.80;0.55;;;17.60;99.90;;;;;;5054020;28;19916;-61
2022/06/24 06:54:46;;;;;;;2.50;0.82;;;17.60;99.90;;;;;;5058150;28;20059;-61
2022/06/24 06:57:12;;;;;;;;;;;17.60;99.90;;;;;;5046766;28;20045;-61
2022/06/24 06:59:37;;;;;;;7.50;0.95;;;17.50;99.90;;;;;;5056163;28;19916;-61
2022/06/24 07:02:03;;;;;;;5.55;0.95;;;17.50;99.90;;;;;;5065262;28;20171;-61
2022/06/24 07:04:29;;;;;;;;;;;17.60;99.90;;;;;;5065848;28;20103;-61
2022/06/24 07:06:54;;;;;;;3.15;1.00;;;17.50;99.90;;;;;;5066027;28;19978;-60
2022/06/24 07:09:20;;;;;;;;;;;17.60;99.90;;;;;;5065426;28;20551;-61
2022/06/24 07:11:45;;;;;;;3.42;1.00;;;17.60;99.90;;;;;;5047631;28;20033;-62
2022/06/24 07:14:11;;;;;;;;;;;17.60;99.90;;;;;;5062520;28;20370;-62
2022/06/24 07:16:36;;;;;;;3.28;1.02;;;17.60;99.90;;;;;;5073549;28;19990;-61
2022/06/24 07:19:02;;;;;;;;;;;17.50;99.90;;;;;;5084114;28;20040;-62
2022/06/24 07:21:28;;;;;;;5.70;1.10;;;17.60;99.90;;;;;;5065659;28;19923;-61
2022/06/24 07:23:53;;;;;;;;;;;17.70;99.90;;;;;;5061117;28;20036;-61
2022/06/24 07:26:19;;;;;;;5.45;1.20;;;17.80;99.90;;;;;;5062492;28;19963;-61
2022/06/24 07:28:45;;;;;;;;;;;17.80;99.90;;;;;;5074964;28;20044;-61
2022/06/24 07:31:18;;;;;;;2.75;1.20;;;17.80;99.90;;;;;;5078036;28;19916;-61
2022/06/24 07:33:44;;;;;;;5.97;1.58;;;17.80;99.90;;;;;;5079728;28;20578;-61
2022/06/24 07:36:10;;;;;;;5.28;1.55;;;17.80;99.90;;;;;;5071355;28;20052;-62
2022/06/24 07:38:36;;;;;;;;;;;17.80;99.90;;;;;;5068535;28;20105;-61
2022/06/24 07:41:02;;;;;;;5.97;1.48;;;17.80;99.90;;;;;;5061081;28;19923;-61
2022/06/24 07:43:28;;;;;;;;;;;17.80;99.90;;;;;;5081352;28;20037;-61
2022/06/24 07:45:55;;;;;;;2.43;1.63;;;17.80;99.90;;;;;;5054178;28;19925;-61
2022/06/24 07:48:21;;;;;;;5.22;1.55;;;17.90;99.90;;;;;;5049652;28;20060;-61
2022/06/24 07:50:46;;;;;;;;;;;17.90;99.90;;;;;;5049905;28;20531;-61
2022/06/24 07:53:12;;;;;;;2.75;1.25;;;18.00;99.90;;;;;;5049507;28;20617;-61
2022/06/24 07:58:22;;;;;;;6.35;1.95;;;18.20;99.90;;;;;;5049470;28;19928;-61
2022/06/24 08:00:48;;;;;;;;;;;18.20;99.90;;;;;;5061055;28;20039;-60
2022/06/24 08:03:17;;;;;;;7.18;2.05;;;18.30;99.90;;;;;;5069324;28;20481;-61
2022/06/24 08:05:43;;;;;;;7.47;2.50;;;18.40;99.90;;;;;;5050663;28;20041;-61
2022/06/24 08:08:09;;;;;;;;;;;18.50;99.90;;;;;;5052057;28;20562;-61
2022/06/24 08:10:35;;;;;;;5.32;1.88;;;18.40;99.90;;;;;;5055075;28;20011;-61
2022/06/24 08:13:00;;;;;;;10.65;1.95;;;18.40;99.90;;;;;;5047936;28;20044;-60
2022/06/24 08:15:26;;;;;;;;;;;18.40;99.90;;;;;;5053960;28;20052;-61
2022/06/24 08:17:51;;;;;;;5.70;1.80;;;18.40;99.90;;;;;;5074122;28;20017;-61
2022/06/24 08:20:17;;;;;;;7.57;2.30;;;18.50;99.90;;;;;;5079744;28;20041;-61
2022/06/24 08:22:42;;;;;;;;;;;18.50;99.90;;;;;;5063821;28;20044;-60
2022/06/24 08:25:09;;;;;;;7.85;1.80;;;18.50;99.90;;;;;;5071799;28;19916;-61
2022/06/24 08:27:34;;;;;;;3.97;1.83;;;18.60;99.90;;;;;;5068121;28;20072;-61
2022/06/24 08:30:00;;;;;;;;;;;18.60;99.90;;;;;;5052224;28;20132;-60
2022/06/24 08:32:26;;;;;;;4.63;1.90;;;18.40;99.90;;;;;;5068355;28;19947;-61
2022/06/24 08:34:51;;;;;;;;;;;18.30;99.90;;;;;;5069486;28;20086;-61
2022/06/24 08:37:17;;;;;;;8.20;1.88;;;18.20;99.90;;;;;;5049404;28;19967;-61
2022/06/24 08:39:42;;;;;;;6.55;1.60;;;18.20;99.90;;;;;;5049910;28;20043;-61
2022/06/24 08:42:10;;;;;;;;;;;18.10;99.90;;;;;;5051459;28;20063;-60
2022/06/24 08:44:37;;;;;;;5.30;2.63;;;18.20;99.90;;;;;;5048532;28;19916;-60
2022/06/24 08:47:03;;;;;;;7.03;2.72;;;18.00;99.90;;;;;;5055213;28;20134;-61
2022/06/24 08:49:31;;;;;;;;;;;18.00;99.90;;;;;;5057165;28;20133;-61
2022/06/24 08:51:59;;;;;;;6.38;2.10;;;18.10;99.90;;;;;;5047474;28;19966;-61
2022/06/24 08:54:30;;;;;;;4.55;2.05;;;18.10;99.90;;;;;;5047776;28;20041;-59
2022/06/24 08:57:02;;;;;;;5.63;2.20;;;18.20;99.90;;;;;;5065059;28;20099;-60
2022/06/24 08:59:31;;;;;;;3.42;1.95;;;18.30;99.90;;;;;;5077709;28;20399;-61
2022/06/24 09:02:01;;;;;;;6.60;2.08;;;18.40;99.90;;;;;;5063650;28;20106;-61
2022/06/24 09:04:33;;;;;;;8.82;2.55;;;18.40;99.90;;;;;;5056698;28;20115;-60
2022/06/24 09:07:05;;;;;;;8.60;2.17;;;18.40;99.90;;;;;;5061421;28;20048;-60
2022/06/24 09:09:34;;;;;;;8.77;2.10;;;18.50;99.90;;;;;;5068142;28;20036;-60
2022/06/24 09:12:05;;;;;;;6.47;2.45;;;18.50;99.90;;;;;;5065703;28;20043;-61
2022/06/24 09:14:48;;;;;;;6.95;2.00;;;18.40;99.90;;;;;;5071946;28;20040;-60
2022/06/24 09:17:17;;;;;;;7.55;2.10;;;18.40;99.90;;;;;;5080063;28;20305;-61
2022/06/24 09:19:42;;;;;;;7.07;1.90;;;18.50;99.90;;;;;;5088409;28;20048;-62
2022/06/24 09:22:12;;;;;;;;;;;18.60;99.90;;;;;;5077060;28;20039;-61
2022/06/24 09:24:47;;;;;;;6.18;2.08;;;18.50;99.90;;;;;;5068009;28;19920;-61
2022/06/24 09:27:14;;;;;;;4.57;2.43;;;18.50;99.90;;;;;;5064361;28;20052;-60
2022/06/24 09:29:48;;;;;;;4.72;2.13;;;18.40;99.90;;;;;;5074645;28;20040;-60
2022/06/24 09:32:14;;;;;;;5.05;2.10;;;18.50;99.90;;;;;;5068239;28;20467;-60
2022/06/24 09:35:00;;;;;;;;;;;18.60;99.90;;;;;;5082719;28;20047;-61
2022/06/24 09:37:41;;;;;;;5.68;2.25;;;18.60;99.90;;;;;;5071051;28;19928;-62
2022/06/24 09:40:18;;;;;;;5.10;1.70;;;18.60;99.90;;;;;;5058659;28;20070;-61
2022/06/24 09:43:04;;;;;;;10.80;2.08;;;18.60;99.90;;;;;;5058073;28;20539;-61
2022/06/24 09:45:50;;;;;;;7.90;2.28;;;18.70;99.90;;;;;;5065969;28;20091;-61
2022/06/24 09:48:37;;;;;;;8.13;2.38;;;18.80;99.90;;;;;;5050660;28;20755;-61
2022/06/24 09:51:11;;;;;;;7.60;2.40;;;18.80;99.90;;;;;;5046784;28;20434;-59
2022/06/24 09:54:05;;;;;;;8.57;3.15;;;18.80;99.90;;;;;;5064614;28;20248;-61
2022/06/24 09:56:37;;;;;;;4.40;2.40;;;19.00;99.90;;;;;;5072485;28;20798;-61
2022/06/24 10:01:56;;;;;;;6.10;2.63;;;19.30;99.90;;;;;;5051712;28;20401;-61
2022/06/24 10:04:26;;;;;;;9.80;2.95;;;19.40;99.90;;;;;;5056523;28;20044;-61
2022/06/24 10:07:02;;;;;;;4.45;2.63;;;19.30;99.90;;;;;;5046859;28;20040;-60
2022/06/24 10:09:31;;;;;;;5.75;2.60;;;19.40;99.90;;;;;;5046789;28;20051;-62
2022/06/24 10:11:58;;;;;;;3.90;2.33;;;19.40;99.90;;;;;;5060235;28;20040;-60
2022/06/24 10:14:29;;;;;;;7.53;2.95;;;19.40;99.90;;;;;;5058285;28;20040;-60
2022/06/24 10:16:56;;;;;;;6.78;2.67;;;19.40;99.90;;;;;;5068631;28;20055;-60
2022/06/24 10:19:25;;;;;;;7.95;2.45;;;19.50;99.90;;;;;;5063539;28;20471;-60
2022/06/24 10:21:51;;;;;;;4.70;2.17;;;19.70;99.90;;;;;;5065898;28;20048;-60
2022/06/24 10:24:16;;;;;;;;;;;19.80;99.90;;;;;;5046730;28;20063;-61
2022/06/24 10:26:48;;;;;;;5.72;2.28;;;20.20;99.90;;;;;;5062703;28;20022;-61
2022/06/24 10:29:14;;;;;;;6.78;2.40;;;20.30;99.90;;;;;;5075436;28;20047;-61
2022/06/24 10:31:48;;;;;;;;;;;20.30;99.90;;;;;;5067800;28;20033;-61
2022/06/24 10:34:22;;;;;;;8.50;2.35;;;20.30;99.90;;;;;;5047401;28;19921;-60
2022/06/24 10:36:59;;;;;;;5.80;2.60;;;20.20;99.90;;;;;;5046182;28;20063;-60
2022/06/24 10:39:29;;;;;;;10.57;2.30;;;20.10;99.90;;;;;;5048769;28;20046;-60
2022/06/24 10:42:04;;;;;;;4.78;2.20;;;20.20;99.90;;;;;;5054278;28;20049;-61
2022/06/24 10:44:35;;;;;;;3.97;2.08;;;20.20;99.90;;;;;;5066276;28;20455;-61
2022/06/24 10:47:14;;;;;;;12.40;2.70;;;20.30;99.90;;;;;;5065926;28;20044;-61
2022/06/24 10:49:51;;;;;;;5.35;2.58;;;20.20;99.90;;;;;;5056292;28;20045;-62
2022/06/24 10:52:35;;;;;;;3.95;1.90;;;20.20;99.90;;;;;;5065987;28;20131;-61
2022/06/24 10:55:21;;;;;;;2.92;2.33;;;20.30;99.90;;;;;;5046026;28;20037;-62
2022/06/24 10:57:52;;;;;;;3.78;1.92;;;20.10;99.90;;;;;;5049941;28;20040;-61
2022/06/24 11:00:20;;;;;;;4.47;1.95;;;20.00;99.90;;;;;;5066105;28;20052;-60
2022/06/24 11:02:50;;;;;;;4.53;1.55;;;19.90;99.90;;;;;;5062723;28;20054;-61
2022/06/24 11:05:25;;;;;;;8.50;2.03;;;20.00;99.90;;;;;;5053951;28;20037;-61
2022/06/24 11:07:52;;;;;;;2.47;1.60;;;20.00;99.90;;;;;;5048313;28;20048;-60
2022/06/24 11:10:22;;;;;;;4.57;1.90;;;19.90;99.90;;;;;;5050837;28;20051;-60
2022/06/24 11:12:48;;;;;;;10.05;2.45;;;19.90;99.90;;;;;;5066726;28;20055;-62
2022/06/24 11:15:14;;;;;;;4.00;1.85;;;19.90;99.90;;;;;;5069294;28;20040;-61
2022/06/24 11:17:41;;;;;;;3.95;1.85;;;19.90;99.90;;;;;;5084833;28;20047;-61
2022/06/24 11:20:09;;;;;;;7.75;2.10;;;20.00;99.90;;;;;;5045806;28;20094;-61
2022/06/24 11:22:42;;;;;;;5.97;1.98;;;20.10;99.90;;;;;;5045691;28;20069;-61
2022/06/24 11:25:10;;;;;;;4.25;2.10;;;20.10;99.90;;;;;;5065237;28;20415;-62
2022/06/24 11:27:36;;;;;;;2.47;1.90;;;19.90;99.90;;;;;;5065716;28;20051;-61
2022/06/24 11:30:03;;;;;;;2.95;2.00;;;20.00;99.90;;;;;;5056071;28;20045;-64
2022/06/24 11:32:29;;;;;;;5.30;2.03;;;20.00;99.90;;;;;;5061822;28;20042;-60
2022/06/24 11:34:54;;;;;;;;;;;20.00;99.90;;;;;;5049225;28;20041;-59
2022/06/24 11:37:24;;;;;;;6.47;2.20;;;20.00;99.90;;;;;;5045286;28;19986;-61
2022/06/24 11:39:53;;;;;;;8.63;2.00;;;20.00;99.90;;;;;;5048614;28;20037;-59
2022/06/24 11:42:19;;;;;;;1.63;1.52;;;20.00;99.90;;;;;;5056317;28;20036;-59
2022/06/24 11:44:45;;;;;;;5.25;1.75;;;20.00;99.90;;;;;;5052062;28;20116;-59
2022/06/24 11:47:10;;;;;;;;;;;20.10;99.90;;;;;;5045886;28;20124;-58
2022/06/24 11:49:39;;;;;;;3.00;1.40;;;20.10;99.90;;;;;;5057250;28;19920;-59
2022/06/24 11:52:05;;;;;;;4.93;1.60;;;20.10;99.90;;;;;;5065366;28;20102;-58
2022/06/24 11:54:31;;;;;;;;;;;20.10;99.90;;;;;;5056927;28;20088;-58
2022/06/24 11:56:57;;;;;;;5.32;1.45;;;20.10;99.90;;;;;;5062398;28;20024;-59
2022/06/24 11:59:26;;;;;;;4.13;1.30;;;20.10;99.90;;;;;;5062297;28;20052;-60
2022/06/24 12:01:53;;;;;;;2.17;0.93;;;20.20;99.90;;;;;;5062641;28;20044;-60
2022/06/24 12:04:22;;;;;;;2.08;1.20;;;20.30;99.90;;;;;;5062321;28;20041;-60
2022/06/24 12:06:48;;;;;;;3.88;1.30;;;20.40;99.90;;;;;;5052240;28;20055;-59
2022/06/24 12:09:15;;;;;;;3.05;1.50;;;20.40;99.90;;;;;;5065089;28;20480;-60
2022/06/24 12:11:43;;;;;;;2.63;1.25;;;20.60;99.90;;;;;;5047854;28;20041;-59
2022/06/24 12:14:15;;;;;;;2.38;1.13;;;20.60;99.90;;;;;;5062099;28;20488;-60
2022/06/24 12:17:07;;;;;;;3.63;1.40;;;20.60;99.90;;;;;;5049326;28;20049;-59
2022/06/24 12:19:35;;;;;;;2.78;1.30;;;20.80;99.90;;;;;;5052547;28;20101;-59
2022/06/24 12:22:06;;;;;;;3.10;1.45;;;21.10;99.90;;;;;;5068595;28;20052;-60
2022/06/24 12:24:32;;;;;;;2.90;1.58;;;21.00;99.90;;;;;;5062597;28;20136;-60
2022/06/24 12:27:00;;;;;;;1.58;1.40;;;21.00;99.90;;;;;;5048031;28;20049;-59
2022/06/24 12:29:35;;;;;;;3.25;1.60;;;20.90;99.90;;;;;;5053636;28;20044;-60
2022/06/24 12:32:03;;;;;;;3.08;1.70;;;20.90;99.90;;;;;;5067489;28;20516;-59
2022/06/24 12:34:35;;;;;;;6.57;2.22;;;20.80;99.90;;;;;;5064395;28;20033;-60
2022/06/24 12:37:06;;;;;;;3.38;1.90;;;20.70;99.90;;;;;;5047961;28;20574;-59
2022/06/24 12:39:41;;;;;;;7.70;1.65;;;20.60;99.90;;;;;;5048841;28;20088;-59
2022/06/24 12:42:08;;;;;;;3.38;1.60;;;20.50;99.90;;;;;;5051757;28;20041;-63
2022/06/24 12:44:40;;;;;;;3.63;1.55;;;20.50;99.90;;;;;;5061710;28;20064;-59
2022/06/24 12:52:41;;;;;;;3.67;1.80;;;20.10;99.90;;;;;;5047936;28;20037;-59
2022/06/24 12:55:09;;;;;;;3.17;1.77;;;20.00;99.90;;;;;;5052758;28;20116;-59
2022/06/24 12:57:36;;;;;;;3.58;1.42;;;19.90;99.90;;;;;;5047893;28;20103;-59
2022/06/24 13:00:07;;;;;;;5.90;1.50;;;19.90;99.90;;;;;;5053101;28;20503;-58
2022/06/24 13:02:33;;;;;;;8.43;1.52;;;20.00;99.90;;;;;;5067872;28;20551;-59
2022/06/24 13:04:58;;;;;;;;;;;20.20;99.90;;;;;;5060575;28;20041;-59
2022/06/24 13:07:24;;;;;;;2.22;1.33;;;20.00;99.90;;;;;;5067846;28;20006;-59
2022/06/24 13:09:49;;;;;;;3.67;1.45;;;19.80;99.90;;;;;;5057763;28;20089;-58
2022/06/24 13:12:15;;;;;;;2.65;1.35;;;19.60;99.90;;;;;;5060641;28;20242;-59
2022/06/24 13:14:41;;;;;;;5.15;1.55;;;19.30;99.90;;;;;;5067622;28;20489;-59
2022/06/24 13:17:06;;;;;;;2.40;1.80;;;19.30;99.90;;;;;;5067213;28;20123;-59
2022/06/24 13:19:32;;;;;;;;;;;19.30;99.90;;;;;;5068290;28;20063;-58
2022/06/24 13:22:00;;;;;;;1.65;1.30;;;19.50;99.90;;;;;;5048363;28;19928;-59
2022/06/24 13:24:26;;;;;;;3.08;1.70;;;19.80;99.90;;;;;;5047343;28;20036;-60